Airfield :
LOGIN :

Register | Disclaimer

   EN    FR    IT 

 










Legend :    VFR   Marginal VFR   IFR   Intensive IFR   Very Intensive IFR
Visi :
Ceiling :
>= 8 km
>= 3000ft
5 to 8 km
1000 to 3000 ft
1500m to 5 km
500 to 1000 ft
800 to 1500m
200 to 500 ft
< 800m
< 200 ft
Symbols :   Thunderstorms  Fog  Heavy snow  Heavy precipitations  Wind > 20 kt
SIGMETs :     Misc.  Thunderstorms  Icing  Turbulence  Mountain Waves  Volcanic Ashes







- Airport Elevation : 6 ft
- IATA code : PSA


LIRP - Galileo Galilei Pisa

CURRENT METAR :
  • 230215Z 08002KT 9000 FEW010 21/20 Q1016 NOSIG

EXPIRED METARs :
  • 230145Z 07002KT 9000 SCT010 21/20 Q1016 NOSIG
  • 230115Z VRB02KT 9999 FEW010 21/20 Q1016 NOSIG
  • 230045Z 15003KT CAVOK 21/20 Q1016 NOSIG
  • 230015Z 22002KT CAVOK 21/21 Q1016 NOSIG
  • 222345Z 23004KT CAVOK 21/21 Q1016 NOSIG

TAF TAF LIRP
Valid from the 23 at 00:00 until the 24 at 00:00 UTC


222300Z 2300/2324 VRB03KT CAVOK
TEMPO 2300/2306 5000 BR SCT010
PROB30
TEMPO 2302/2305 1500 MIFG SCT005
BECMG 2306/2308 28010KT
BECMG 2318/2320 VRB03KT
No reported NOTAMs for that airfield.



MET'MAP, your aeronautical weather chart ! - Copyright ORBIFLY December 2007 - Disclaimer

ORBIFLY MET'MAP TEAM :

Programming & Development : Alexandra Zaïnal
Concept & Development : Baudouin d'Aumeries
Co-Development & Prog : Marc-Olivier Méhu
Technical & hardware support : Manuel Goepfert

Contact : metmap@orbifly.com




SOURCES & CREDITS :

   NOAA